Terminal Aerodrome Forecast
Issued by NWS

Current Version | Previous Version | Graphics & Text | Print | Product List | Glossary On
Versions: 1 2 3 4 5 6 7 8 9 10 11 12 13 14 15 16 17 18 19 20 21 22 23 24 25 26
444
FTUS41 KPBZ 231452 AAA
TAFMGW
TAF AMD
KMGW 231452Z 2315/2412 00000KT P6SM OVC010
     FM231530 01003KT P6SM SCT090
     FM231700 36006KT P6SM VCTS BKN040CB
     FM232200 35003KT P6SM BKN100
     FM240300 00000KT 3SM BR SKC=

USA.gov is the U.S. government's official web portal to all federal, state and local government web resources and services.